Time;durP1;ratioP1;P1;durP2;ratioP2;P2;SDS_P1;SDS_P2;PMS_P1;PMS_P2;Temp;Humidity;BMP_temperature;BMP_pressure;BME280_temperature;BME280_humidity;BME280_pressure;Samples;Min_cycle;Max_cycle;Signal;HPM_P1;HPM_P2
2023/02/27 00:01:13;;;;;;;2.23;0.93;;;6.10;75.00;;;;;;4959873;28;20236;-76
2023/02/27 00:03:40;;;;;;;2.23;1.10;;;6.10;75.60;;;;;;4957712;28;20209;-79
2023/02/27 00:06:07;;;;;;;4.30;1.27;;;6.00;76.40;;;;;;4939229;28;20676;-78
2023/02/27 00:08:36;;;;;;;2.77;1.00;;;6.00;76.90;;;;;;4954835;28;20213;-78
2023/02/27 00:11:03;;;;;;;3.37;1.00;;;6.00;76.30;;;;;;4957281;28;20283;-79
2023/02/27 00:13:30;;;;;;;3.20;1.30;;;6.00;76.40;;;;;;4946343;28;20266;-80
2023/02/27 00:15:58;;;;;;;3.20;0.67;;;6.00;76.40;;;;;;4956774;28;20244;-81
2023/02/27 00:18:26;;;;;;;3.83;1.00;;;6.00;76.00;;;;;;4944901;28;20266;-79
2023/02/27 00:20:53;;;;;;;3.63;0.90;;;6.00;76.70;;;;;;4954461;28;20201;-77
2023/02/27 00:23:20;;;;;;;3.53;0.90;;;6.00;77.60;;;;;;4957863;28;20205;-79
2023/02/27 00:25:48;;;;;;;1.73;0.90;;;5.90;78.20;;;;;;4954404;28;20647;-81
2023/02/27 00:28:17;;;;;;;3.70;1.10;;;5.90;75.40;;;;;;4947398;28;20274;-77
2023/02/27 00:30:44;;;;;;;3.13;0.90;;;5.90;76.80;;;;;;4953093;28;20202;-78
2023/02/27 00:33:11;;;;;;;3.47;1.00;;;5.90;77.10;;;;;;4950429;28;20240;-78
2023/02/27 00:35:40;;;;;;;3.93;0.97;;;5.90;76.30;;;;;;4947820;28;20298;-76
2023/02/27 00:38:08;;;;;;;2.20;1.00;;;5.90;77.30;;;;;;4953445;28;20298;-79
2023/02/27 00:40:35;;;;;;;3.93;2.00;;;5.90;76.90;;;;;;4955157;28;20202;-78
2023/02/27 00:43:03;;;;;;;5.77;1.27;;;5.90;77.80;;;;;;4948708;28;20625;-78
2023/02/27 00:45:30;;;;;;;3.23;1.50;;;5.90;78.00;;;;;;4948373;28;20597;-78
2023/02/27 00:47:57;;;;;;;3.27;1.20;;;5.90;77.80;;;;;;4953503;28;20217;-78
2023/02/27 00:50:24;;;;;;;4.73;1.50;;;5.90;78.50;;;;;;4950207;28;20202;-82
2023/02/27 00:52:51;;;;;;;2.47;1.37;;;5.90;78.70;;;;;;4951168;28;20210;-77
2023/02/27 00:55:18;;;;;;;3.40;1.20;;;5.90;77.90;;;;;;4953465;28;20608;-76
2023/02/27 00:57:48;;;;;;;7.77;1.30;;;5.90;78.80;;;;;;4947925;28;20573;-77
2023/02/27 01:00:16;;;;;;;2.90;1.30;;;5.90;78.70;;;;;;4945858;28;20246;-79
2023/02/27 01:02:43;;;;;;;2.03;1.37;;;5.90;79.80;;;;;;4952143;28;20228;-78
2023/02/27 01:05:10;;;;;;;2.17;1.20;;;5.90;78.70;;;;;;4949214;28;20210;-78
2023/02/27 01:07:38;;;;;;;5.00;1.57;;;5.90;79.30;;;;;;4950546;28;20205;-79
2023/02/27 01:10:07;;;;;;;3.70;1.20;;;5.90;78.80;;;;;;4948174;28;20221;-77
2023/02/27 01:12:38;;;;;;;1.40;1.20;;;5.90;79.70;;;;;;4928084;29;20299;-79
2023/02/27 01:15:07;;;;;;;1.80;0.93;;;5.90;79.80;;;;;;4943902;28;20736;-77
2023/02/27 01:17:34;;;;;;;4.70;1.80;;;5.90;79.40;;;;;;4947255;28;20645;-80
2023/02/27 01:20:05;;;;;;;2.17;0.93;;;5.90;78.20;;;;;;4931259;29;20207;-77
2023/02/27 01:22:33;;;;;;;5.70;1.20;;;5.90;78.80;;;;;;4955821;28;20233;-77
2023/02/27 01:25:00;;;;;;;2.53;1.20;;;6.00;79.10;;;;;;4946261;29;20270;-78
2023/02/27 01:27:28;;;;;;;1.93;1.30;;;5.90;79.10;;;;;;4964693;28;20218;-81
2023/02/27 01:29:57;;;;;;;5.13;1.83;;;5.90;79.70;;;;;;4940753;28;20216;-79
2023/02/27 01:32:24;;;;;;;5.17;1.30;;;5.90;79.10;;;;;;4957529;28;20206;-77
2023/02/27 01:34:51;;;;;;;4.17;1.10;;;6.00;79.30;;;;;;4942611;29;20194;-77
2023/02/27 01:37:20;;;;;;;2.67;1.37;;;5.90;79.20;;;;;;4962586;28;20305;-81
2023/02/27 01:39:48;;;;;;;1.70;1.30;;;5.90;79.60;;;;;;4937570;29;20227;-80
2023/02/27 01:42:26;;;;;;;2.60;1.57;;;5.90;79.20;;;;;;4947497;28;20207;-79
2023/02/27 01:45:10;;;;;;;2.40;0.90;;;5.90;79.50;;;;;;4945611;28;20213;-78
2023/02/27 01:47:43;;;;;;;3.33;1.10;;;5.90;79.90;;;;;;4945362;28;20540;-78
2023/02/27 01:50:12;;;;;;;6.83;1.70;;;5.90;80.00;;;;;;4942299;28;20243;-80
2023/02/27 01:52:40;;;;;;;7.80;1.47;;;5.90;79.90;;;;;;4931560;29;20634;-79
2023/02/27 01:55:11;;;;;;;3.20;1.30;;;5.90;79.90;;;;;;4931027;29;20210;-79
2023/02/27 01:57:40;;;;;;;4.63;1.23;;;5.90;80.00;;;;;;4947563;28;20237;-80
2023/02/27 02:00:08;;;;;;;1.63;1.23;;;5.90;80.80;;;;;;4945788;28;20207;-80
2023/02/27 02:02:46;;;;;;;4.43;1.10;;;5.80;80.60;;;;;;4930251;29;20210;-79
2023/02/27 02:05:14;;;;;;;4.10;1.53;;;5.80;80.40;;;;;;4955607;28;20216;-80
2023/02/27 02:07:43;;;;;;;7.23;2.20;;;5.80;80.50;;;;;;4956105;28;20647;-78
2023/02/27 02:10:15;;;;;;;3.43;1.10;;;5.80;80.50;;;;;;4954839;28;20247;-79
2023/02/27 02:12:43;;;;;;;3.40;1.27;;;5.90;79.60;;;;;;4926770;29;20231;-80
2023/02/27 02:15:11;;;;;;;1.83;1.13;;;5.90;79.10;;;;;;4953080;28;20568;-78
2023/02/27 02:18:02;;;;;;;4.23;1.07;;;5.90;79.10;;;;;;4930078;29;20251;-79
2023/02/27 02:21:17;;;;;;;3.37;1.20;;;5.90;78.90;;;;;;4951683;28;20223;-79
2023/02/27 02:24:04;;;;;;;4.57;1.40;;;5.90;79.90;;;;;;4908387;29;20212;-77
2023/02/27 02:26:43;;;;;;;5.93;1.40;;;6.00;79.40;;;;;;4948601;28;20214;-77
2023/02/27 02:29:14;;;;;;;3.33;1.53;;;6.00;78.40;;;;;;4950778;28;20203;-79
2023/02/27 02:32:20;;;;;;;2.77;1.27;;;6.00;78.20;;;;;;4936472;28;20645;-78
2023/02/27 02:35:24;;;;;;;4.70;1.30;;;6.00;79.30;;;;;;4937671;29;20274;-77
2023/02/27 02:38:12;;;;;;;4.33;1.40;;;6.00;80.10;;;;;;4950401;28;20199;-79
2023/02/27 02:40:56;;;;;;;2.57;1.40;;;6.00;79.80;;;;;;4936854;29;20209;-79
2023/02/27 02:43:37;;;;;;;3.63;1.63;;;6.00;78.60;;;;;;4945800;28;20274;-79
2023/02/27 02:46:29;;;;;;;5.57;1.73;;;6.00;78.80;;;;;;4931129;29;20202;-78
2023/02/27 02:49:10;;;;;;;9.63;1.43;;;6.00;79.20;;;;;;4952375;28;20281;-79
2023/02/27 02:51:48;;;;;;;6.10;1.30;;;6.00;78.80;;;;;;4956234;28;20214;-77
2023/02/27 02:54:28;;;;;;;3.13;1.63;;;6.00;79.20;;;;;;4940263;28;20558;-77
2023/02/27 02:57:07;;;;;;;4.90;1.70;;;6.00;79.00;;;;;;4950361;28;20691;-77
2023/02/27 02:59:58;;;;;;;2.73;1.13;;;6.00;78.60;;;;;;4946739;28;20218;-78
2023/02/27 03:02:30;;;;;;;5.43;1.47;;;6.10;78.00;;;;;;4950661;28;20203;-79
2023/02/27 03:05:08;;;;;;;2.60;1.20;;;6.00;78.00;;;;;;4949550;28;20230;-77
2023/02/27 03:07:56;;;;;;;5.77;2.03;;;6.10;77.90;;;;;;4939057;29;20210;-79
2023/02/27 03:10:39;;;;;;;3.27;1.40;;;6.10;78.50;;;;;;4944219;29;20203;-79
2023/02/27 03:13:22;;;;;;;6.00;1.80;;;6.10;79.20;;;;;;4948069;28;20258;-79
2023/02/27 03:15:53;;;;;;;4.13;1.40;;;6.10;78.90;;;;;;4936061;28;20222;-78
2023/02/27 03:18:29;;;;;;;6.37;1.40;;;6.00;77.50;;;;;;4951160;28;20210;-77
2023/02/27 03:21:02;;;;;;;4.90;1.30;;;6.10;78.70;;;;;;4946591;28;20613;-78
2023/02/27 03:23:41;;;;;;;3.33;1.90;;;6.10;78.50;;;;;;4949052;28;20252;-78
2023/02/27 03:26:15;;;;;;;2.70;1.20;;;6.10;78.30;;;;;;4952709;28;20256;-77
2023/02/27 03:29:00;;;;;;;9.90;1.70;;;6.10;77.10;;;;;;4944921;28;20210;-78
2023/02/27 03:31:44;;;;;;;6.23;1.60;;;6.10;78.20;;;;;;4953731;28;20268;-78
2023/02/27 03:34:29;;;;;;;7.60;1.67;;;6.10;78.20;;;;;;4950621;28;20214;-79
2023/02/27 03:37:35;;;;;;;7.80;1.80;;;6.10;77.60;;;;;;4957575;28;20224;-78
2023/02/27 03:40:36;;;;;;;4.93;1.43;;;6.10;78.40;;;;;;4950073;28;20293;-79
2023/02/27 03:43:28;;;;;;;5.73;1.60;;;6.10;77.60;;;;;;4956472;28;20209;-78
2023/02/27 03:46:13;;;;;;;6.77;1.50;;;6.10;77.60;;;;;;4959223;28;20210;-77
2023/02/27 03:48:44;;;;;;;5.27;1.77;;;6.10;77.50;;;;;;4953892;28;20209;-77
2023/02/27 03:51:13;;;;;;;9.40;2.23;;;6.10;77.70;;;;;;4941688;28;20324;-79
2023/02/27 03:53:50;;;;;;;3.30;1.17;;;6.10;77.10;;;;;;4947419;28;20205;-78
2023/02/27 03:56:51;;;;;;;4.27;1.60;;;6.10;77.50;;;;;;4954372;28;20305;-79
2023/02/27 03:59:18;;;;;;;6.67;2.10;;;6.10;77.30;;;;;;4954085;28;20667;-77
2023/02/27 04:01:50;;;;;;;6.27;1.63;;;6.00;78.10;;;;;;4954662;28;20224;-78
2023/02/27 04:04:18;;;;;;;3.43;1.40;;;6.00;77.70;;;;;;4951630;28;20219;-78
2023/02/27 04:07:33;;;;;;;5.50;1.70;;;6.00;77.90;;;;;;4951309;28;20236;-78
2023/02/27 04:10:13;;;;;;;4.97;1.47;;;6.00;77.90;;;;;;4950591;28;20260;-78
2023/02/27 04:12:45;;;;;;;3.07;1.13;;;6.00;77.60;;;;;;4958615;28;20238;-78
2023/02/27 04:15:25;;;;;;;2.43;1.20;;;6.00;77.40;;;;;;4952412;28;20245;-78
2023/02/27 04:18:03;;;;;;;3.77;1.67;;;6.00;77.50;;;;;;4951258;28;20220;-78
2023/02/27 04:20:43;;;;;;;4.87;1.97;;;6.00;77.50;;;;;;4947027;28;20209;-78
2023/02/27 04:23:25;;;;;;;5.27;1.67;;;6.00;77.00;;;;;;4951870;28;20528;-77
2023/02/27 04:26:29;;;;;;;6.43;1.77;;;6.00;77.20;;;;;;4948420;28;20287;-76
2023/02/27 04:29:15;;;;;;;6.90;1.70;;;6.00;77.20;;;;;;4952111;28;20637;-80
2023/02/27 04:32:10;;;;;;;6.50;2.20;;;6.00;76.80;;;;;;4960108;28;20201;-79
2023/02/27 04:34:52;;;;;;;1.97;1.57;;;6.00;77.20;;;;;;4947682;28;20601;-78
2023/02/27 04:37:36;;;;;;;3.03;1.47;;;6.00;77.40;;;;;;4948417;28;20226;-78
2023/02/27 04:40:09;;;;;;;5.33;1.40;;;6.00;77.40;;;;;;4948416;28;20218;-81
2023/02/27 04:42:45;;;;;;;10.03;2.40;;;6.00;76.50;;;;;;4950835;28;20194;-79
2023/02/27 04:45:20;;;;;;;5.87;1.83;;;6.00;76.70;;;;;;4949482;28;20238;-80
2023/02/27 04:47:57;;;;;;;4.20;1.23;;;6.00;76.70;;;;;;4932992;29;20222;-79
2023/02/27 04:50:44;;;;;;;1.73;1.40;;;6.00;76.20;;;;;;4947786;28;20210;-78
2023/02/27 04:53:22;;;;;;;3.33;1.73;;;6.00;76.60;;;;;;4948234;28;20201;-80
2023/02/27 04:55:54;;;;;;;4.67;1.73;;;6.00;76.30;;;;;;4952424;28;20221;-79
2023/02/27 04:58:30;;;;;;;4.47;1.73;;;6.00;76.60;;;;;;4938688;28;20290;-77
2023/02/27 05:01:02;;;;;;;3.17;1.37;;;6.00;76.40;;;;;;4939052;28;20285;-80
2023/02/27 05:03:34;;;;;;;6.70;1.70;;;6.00;76.30;;;;;;4943917;28;20214;-78
2023/02/27 05:06:02;;;;;;;7.67;2.13;;;6.00;76.50;;;;;;4950704;28;20204;-80
2023/02/27 05:08:41;;;;;;;5.37;1.77;;;6.00;76.50;;;;;;4954650;28;20201;-79
2023/02/27 05:11:34;;;;;;;3.93;1.67;;;6.00;76.10;;;;;;4948208;28;20202;-79
2023/02/27 05:14:05;;;;;;;5.43;1.83;;;6.00;75.90;;;;;;4926737;29;20242;-80
2023/02/27 05:16:38;;;;;;;7.30;2.63;;;6.00;75.60;;;;;;4932312;29;20221;-79
2023/02/27 05:19:07;;;;;;;3.70;1.27;;;6.00;75.30;;;;;;4949717;28;20207;-79
2023/02/27 05:22:07;;;;;;;3.20;1.47;;;6.00;75.90;;;;;;4946190;28;20243;-81
2023/02/27 05:24:36;;;;;;;7.00;1.73;;;6.00;75.10;;;;;;4923593;29;20290;-77
2023/02/27 05:27:18;;;;;;;7.60;1.50;;;6.00;75.20;;;;;;4928105;29;20297;-79
2023/02/27 05:29:51;;;;;;;6.00;1.43;;;6.00;75.50;;;;;;4950580;28;20285;-79
2023/02/27 05:32:47;;;;;;;4.10;1.30;;;5.90;76.10;;;;;;4933361;29;20207;-78
2023/02/27 05:35:25;;;;;;;7.63;1.40;;;6.00;75.40;;;;;;4948317;28;20217;-79
2023/02/27 05:37:58;;;;;;;6.07;1.70;;;5.90;75.80;;;;;;4946985;28;20268;-77
2023/02/27 05:40:36;;;;;;;2.70;1.43;;;5.90;75.10;;;;;;4932389;29;20213;-78
2023/02/27 05:43:39;;;;;;;4.20;1.70;;;6.00;76.10;;;;;;4953544;28;20244;-79
2023/02/27 05:46:19;;;;;;;4.97;1.80;;;6.00;75.50;;;;;;4915648;29;20211;-78
2023/02/27 05:48:59;;;;;;;4.27;1.83;;;5.90;75.90;;;;;;4949208;28;20217;-77
2023/02/27 05:51:32;;;;;;;6.93;1.90;;;5.90;74.70;;;;;;4945656;28;21261;-79
2023/02/27 05:54:09;;;;;;;1.73;1.10;;;6.00;74.80;;;;;;4944041;28;20234;-79
2023/02/27 05:56:39;;;;;;;3.83;1.53;;;6.00;75.10;;;;;;4948778;28;20241;-79
2023/02/27 05:59:17;;;;;;;5.53;2.03;;;5.90;75.00;;;;;;4940581;28;20231;-78
2023/02/27 06:01:46;;;;;;;5.33;1.43;;;6.00;74.70;;;;;;4931273;29;20199;-80
2023/02/27 06:04:13;;;;;;;3.27;1.37;;;5.90;74.60;;;;;;4944915;28;20206;-81
2023/02/27 06:06:41;;;;;;;1.93;1.10;;;6.00;75.00;;;;;;4950792;28;20201;-79
2023/02/27 06:09:11;;;;;;;6.90;2.07;;;6.00;74.90;;;;;;4951991;28;20202;-78
2023/02/27 06:11:39;;;;;;;2.73;1.60;;;6.00;75.20;;;;;;4945916;28;20207;-81
2023/02/27 06:14:10;;;;;;;4.43;1.57;;;6.00;75.30;;;;;;4933301;29;20241;-78
2023/02/27 06:16:39;;;;;;;6.53;1.70;;;6.00;76.10;;;;;;4936552;29;20246;-77
2023/02/27 06:19:15;;;;;;;3.57;1.70;;;5.90;75.60;;;;;;4928132;29;20265;-79
2023/02/27 06:21:45;;;;;;;2.10;1.53;;;6.00;75.70;;;;;;4946366;28;20284;-79
2023/02/27 06:24:16;;;;;;;2.53;1.60;;;6.00;76.20;;;;;;4948519;28;20205;-79
2023/02/27 06:26:43;;;;;;;3.50;1.70;;;6.00;76.20;;;;;;4943097;28;20242;-78
2023/02/27 06:29:11;;;;;;;4.63;2.13;;;6.00;76.50;;;;;;4945898;28;20652;-78
2023/02/27 06:31:43;;;;;;;8.30;2.00;;;6.00;77.20;;;;;;4930273;29;20289;-80
2023/02/27 06:34:14;;;;;;;2.53;1.43;;;6.00;76.90;;;;;;4939248;28;20243;-78
2023/02/27 06:36:42;;;;;;;2.80;1.60;;;6.00;77.20;;;;;;4949956;28;20940;-78
2023/02/27 06:39:11;;;;;;;2.60;1.50;;;6.00;77.30;;;;;;4932823;29;20207;-77
2023/02/27 06:41:39;;;;;;;4.57;2.10;;;6.00;77.40;;;;;;4919107;29;20606;-81
2023/02/27 06:44:07;;;;;;;5.07;1.47;;;6.00;78.20;;;;;;4949924;28;20207;-79
2023/02/27 06:46:38;;;;;;;3.97;1.87;;;6.00;77.80;;;;;;4930670;29;20654;-78
2023/02/27 06:49:13;;;;;;;6.80;2.17;;;6.00;76.30;;;;;;4947103;28;20551;-78
2023/02/27 06:51:46;;;;;;;5.50;2.60;;;6.00;77.00;;;;;;4951144;28;20214;-79
2023/02/27 06:54:15;;;;;;;5.17;1.40;;;6.10;78.00;;;;;;4930857;29;20286;-81
2023/02/27 06:56:43;;;;;;;3.17;2.07;;;6.10;78.50;;;;;;4937255;29;20295;-80
2023/02/27 06:59:16;;;;;;;5.83;2.27;;;6.10;78.10;;;;;;4962883;28;20215;-78
2023/02/27 07:01:44;;;;;;;8.37;2.00;;;6.10;77.60;;;;;;4955285;28;20221;-78
2023/02/27 07:04:15;;;;;;;9.37;2.00;;;6.10;77.20;;;;;;4938080;29;20223;-78
2023/02/27 07:06:50;;;;;;;4.97;1.60;;;6.10;77.60;;;;;;4937338;28;20215;-78
2023/02/27 07:09:38;;;;;;;9.20;2.33;;;6.10;77.60;;;;;;4951398;28;20210;-77
2023/02/27 07:12:09;;;;;;;4.50;1.83;;;6.20;77.60;;;;;;4932852;29;20217;-80
2023/02/27 07:14:40;;;;;;;4.30;2.13;;;6.20;77.30;;;;;;4933041;29;20253;-79
2023/02/27 07:17:09;;;;;;;10.67;2.03;;;6.30;77.20;;;;;;4944119;28;20222;-79
2023/02/27 07:19:38;;;;;;;11.60;2.23;;;6.30;77.80;;;;;;4915127;29;20215;-78
2023/02/27 07:22:08;;;;;;;5.83;2.17;;;6.30;76.70;;;;;;4925652;29;20207;-79
2023/02/27 07:24:35;;;;;;;6.57;1.97;;;6.40;76.00;;;;;;4946919;28;20302;-78
2023/02/27 07:27:03;;;;;;;4.73;1.57;;;6.40;76.50;;;;;;4934736;29;20198;-78
2023/02/27 07:29:36;;;;;;;4.93;2.30;;;6.40;76.80;;;;;;4943009;28;20202;-77
2023/02/27 07:32:04;;;;;;;3.47;1.57;;;6.50;76.20;;;;;;4946615;28;20206;-78
2023/02/27 07:34:32;;;;;;;7.83;2.97;;;6.50;76.00;;;;;;4935878;29;20219;-77
2023/02/27 07:37:02;;;;;;;6.33;1.83;;;6.60;76.30;;;;;;4922555;29;20221;-78
2023/02/27 07:39:30;;;;;;;4.43;1.73;;;6.60;76.20;;;;;;4940181;28;20716;-78
2023/02/27 07:41:57;;;;;;;6.73;2.00;;;6.70;76.70;;;;;;4944973;28;20262;-77
2023/02/27 07:44:27;;;;;;;4.77;2.07;;;6.70;76.60;;;;;;4951062;28;20600;-79
2023/02/27 07:46:56;;;;;;;4.40;1.93;;;6.80;76.70;;;;;;4933786;29;20207;-79
2023/02/27 07:49:24;;;;;;;4.00;1.83;;;6.80;75.90;;;;;;4933975;29;20242;-79
2023/02/27 07:51:58;;;;;;;4.57;2.03;;;6.90;75.20;;;;;;4949506;28;20199;-80
2023/02/27 07:54:27;;;;;;;3.93;1.90;;;6.90;75.70;;;;;;4930632;29;20217;-78
2023/02/27 07:56:58;;;;;;;6.50;2.50;;;7.00;75.70;;;;;;4947488;28;20309;-77
2023/02/27 07:59:28;;;;;;;12.87;2.50;;;7.10;75.00;;;;;;4936889;29;20196;-79
2023/02/27 08:01:58;;;;;;;7.00;2.27;;;7.20;75.50;;;;;;4916964;29;20210;-78
2023/02/27 08:04:26;;;;;;;8.90;2.33;;;7.30;75.90;;;;;;4945954;29;20218;-80
2023/02/27 08:06:54;;;;;;;12.83;2.90;;;7.30;75.80;;;;;;4934572;29;20214;-78
2023/02/27 08:09:22;;;;;;;5.67;2.63;;;7.30;75.10;;;;;;4949817;28;20226;-79
2023/02/27 08:11:50;;;;;;;9.57;3.07;;;7.20;74.40;;;;;;4946696;28;20335;-77
2023/02/27 08:14:19;;;;;;;6.93;2.67;;;7.30;74.50;;;;;;4949098;28;20247;-79
2023/02/27 08:16:47;;;;;;;9.97;2.93;;;7.30;74.30;;;;;;4916751;29;20211;-79
2023/02/27 08:19:15;;;;;;;10.93;2.27;;;7.30;73.50;;;;;;4932785;29;20191;-78
2023/02/27 08:21:45;;;;;;;8.80;3.00;;;7.30;73.60;;;;;;4945496;28;20207;-80
2023/02/27 08:24:13;;;;;;;5.13;3.00;;;7.40;73.10;;;;;;4927670;29;20203;-78
2023/02/27 08:26:40;;;;;;;11.57;2.90;;;7.40;73.20;;;;;;4947767;28;20228;-78
2023/02/27 08:29:08;;;;;;;8.30;2.70;;;7.40;73.90;;;;;;4955861;28;20198;-77
2023/02/27 08:31:41;;;;;;;8.53;2.50;;;7.50;74.60;;;;;;4929820;29;20242;-78
2023/02/27 08:34:09;;;;;;;7.07;2.93;;;7.50;73.30;;;;;;4943731;28;20225;-79
2023/02/27 08:36:38;;;;;;;4.67;2.27;;;7.60;73.10;;;;;;4950472;28;20213;-79
2023/02/27 08:39:12;;;;;;;9.90;2.60;;;7.60;72.10;;;;;;4949536;28;20278;-78
2023/02/27 08:41:40;;;;;;;7.13;3.07;;;7.60;72.90;;;;;;4953950;28;20596;-79
2023/02/27 08:44:11;;;;;;;7.07;2.07;;;7.60;72.20;;;;;;4943068;28;20207;-78
2023/02/27 08:46:38;;;;;;;8.20;2.73;;;7.60;72.90;;;;;;4934916;28;20645;-77
2023/02/27 08:49:07;;;;;;;6.77;2.33;;;7.60;72.10;;;;;;4933796;29;20544;-78
2023/02/27 08:51:35;;;;;;;4.00;2.00;;;7.60;72.10;;;;;;4943794;28;20215;-78
2023/02/27 08:54:05;;;;;;;2.87;1.87;;;7.70;71.60;;;;;;4928926;29;20231;-78
2023/02/27 08:56:34;;;;;;;5.20;2.47;;;7.80;71.00;;;;;;4951481;28;20202;-81
2023/02/27 08:59:04;;;;;;;7.30;2.57;;;7.80;70.90;;;;;;4955790;28;20239;-81
2023/02/27 09:01:33;;;;;;;7.93;2.93;;;7.90;71.50;;;;;;4937235;29;20206;-79
2023/02/27 09:04:04;;;;;;;4.17;2.10;;;7.90;71.90;;;;;;4934065;29;20214;-79
2023/02/27 09:06:34;;;;;;;4.97;2.70;;;8.00;71.70;;;;;;4936086;29;20199;-80
2023/02/27 09:09:03;;;;;;;7.23;2.67;;;8.00;71.70;;;;;;4933165;29;20211;-79
2023/02/27 09:11:31;;;;;;;9.10;3.40;;;8.00;71.90;;;;;;4950358;28;20211;-80
2023/02/27 09:13:59;;;;;;;6.53;2.20;;;8.00;71.90;;;;;;4949126;28;20650;-82
2023/02/27 09:16:29;;;;;;;13.33;2.77;;;8.00;70.90;;;;;;4947438;28;20302;-80
2023/02/27 09:18:57;;;;;;;8.67;2.90;;;8.00;71.60;;;;;;4950909;28;20239;-79
2023/02/27 09:21:26;;;;;;;7.13;2.63;;;8.00;72.10;;;;;;4932244;29;20203;-79
2023/02/27 09:23:53;;;;;;;12.70;2.40;;;8.10;71.80;;;;;;4946543;28;20694;-82
2023/02/27 09:26:45;;;;;;;9.07;3.33;;;8.10;71.30;;;;;;4934094;29;20223;-79
2023/02/27 09:29:13;;;;;;;9.90;2.50;;;8.10;71.10;;;;;;4945498;28;20234;-80
2023/02/27 09:31:42;;;;;;;7.70;2.33;;;8.10;70.40;;;;;;4948993;28;20210;-80
2023/02/27 09:34:12;;;;;;;5.87;2.63;;;8.10;69.70;;;;;;4933262;29;20214;-79
2023/02/27 09:36:40;;;;;;;10.10;3.27;;;8.10;70.20;;;;;;4944811;28;20266;-78
2023/02/27 09:39:10;;;;;;;6.73;3.57;;;8.10;71.30;;;;;;4936747;29;20247;-79
2023/02/27 09:41:51;;;;;;;6.80;2.77;;;8.20;71.20;;;;;;4922856;29;20211;-77
2023/02/27 09:44:37;;;;;;;6.60;2.13;;;8.30;70.50;;;;;;4933674;29;20290;-80
2023/02/27 09:47:20;;;;;;;5.87;2.40;;;8.40;71.10;;;;;;4946545;28;20212;-79
2023/02/27 09:50:07;;;;;;;7.10;2.20;;;8.50;69.60;;;;;;4925917;29;20572;-78
2023/02/27 09:52:44;;;;;;;7.10;2.80;;;8.50;70.10;;;;;;4944325;28;20276;-80
2023/02/27 09:55:19;;;;;;;9.13;2.70;;;8.60;69.80;;;;;;4933117;29;20217;-78
2023/02/27 09:58:03;;;;;;;4.97;2.50;;;8.60;68.30;;;;;;4943431;28;20218;-79
2023/02/27 10:00:47;;;;;;;6.87;2.57;;;8.60;70.20;;;;;;4943232;28;20665;-82
2023/02/27 10:03:33;;;;;;;8.50;2.77;;;8.70;69.40;;;;;;4947405;28;20218;-77
2023/02/27 10:06:23;;;;;;;4.77;2.47;;;8.70;68.80;;;;;;4942317;28;20272;-80
2023/02/27 10:09:03;;;;;;;4.87;2.20;;;8.80;66.20;;;;;;4930623;29;20198;-80
2023/02/27 10:11:54;;;;;;;6.30;2.93;;;8.80;65.70;;;;;;4941356;28;20268;-80
2023/02/27 10:14:50;;;;;;;7.20;2.40;;;8.90;68.60;;;;;;4946092;28;20709;-80
2023/02/27 10:17:31;;;;;;;6.07;2.37;;;9.10;69.70;;;;;;4940316;28;20560;-78
2023/02/27 10:20:20;;;;;;;10.33;2.50;;;9.30;68.30;;;;;;4932707;29;20199;-79
2023/02/27 10:22:51;;;;;;;3.73;2.37;;;9.60;68.40;;;;;;4929801;29;20601;-82
2023/02/27 10:25:20;;;;;;;6.17;2.70;;;9.70;65.80;;;;;;4949387;28;20793;-79
2023/02/27 10:28:17;;;;;;;4.23;2.63;;;9.90;65.70;;;;;;4943059;28;20630;-81
2023/02/27 10:30:51;;;;;;;5.07;2.80;;;10.00;65.30;;;;;;4949064;29;20632;-78
2023/02/27 10:33:31;;;;;;;5.40;3.00;;;10.10;65.70;;;;;;4946362;28;20707;-79
2023/02/27 10:35:59;;;;;;;5.23;2.53;;;10.10;65.20;;;;;;4952057;28;20199;-79
2023/02/27 10:38:36;;;;;;;6.10;2.90;;;10.10;64.60;;;;;;4946906;28;20284;-77
2023/02/27 10:41:10;;;;;;;9.47;3.03;;;10.00;63.30;;;;;;4948831;28;20265;-82
2023/02/27 10:43:39;;;;;;;5.17;2.77;;;9.80;65.10;;;;;;4948123;28;20206;-78
2023/02/27 10:46:23;;;;;;;5.47;2.67;;;9.60;66.00;;;;;;4931390;29;20663;-79
2023/02/27 10:48:53;;;;;;;5.77;2.83;;;9.60;66.00;;;;;;4956959;28;20274;-81
2023/02/27 10:51:29;;;;;;;2.77;2.20;;;9.60;65.30;;;;;;4945363;28;20217;-78
2023/02/27 10:54:14;;;;;;;5.67;3.20;;;9.60;63.50;;;;;;4932550;28;20614;-79
2023/02/27 10:56:46;;;;;;;5.37;2.70;;;9.50;64.00;;;;;;4943432;28;20231;-78
2023/02/27 10:59:19;;;;;;;6.97;2.97;;;9.50;64.90;;;;;;4947615;28;20307;-79
2023/02/27 11:01:59;;;;;;;5.63;2.30;;;9.50;65.20;;;;;;4959155;28;20353;-82
2023/02/27 11:04:34;;;;;;;5.10;3.10;;;9.50;64.80;;;;;;4957823;28;20222;-81
2023/02/27 11:07:05;;;;;;;7.70;2.80;;;9.40;65.60;;;;;;4935656;29;20205;-78
2023/02/27 11:09:34;;;;;;;4.03;2.60;;;9.50;64.80;;;;;;4945098;28;20230;-79
2023/02/27 11:12:28;;;;;;;6.90;3.03;;;9.50;65.90;;;;;;4945760;28;20634;-80
2023/02/27 11:15:00;;;;;;;10.67;2.47;;;9.50;65.60;;;;;;4930520;29;20244;-79
2023/02/27 11:17:33;;;;;;;8.20;3.23;;;9.50;64.10;;;;;;4945698;28;20663;-81
2023/02/27 11:20:06;;;;;;;9.67;2.63;;;9.50;64.90;;;;;;4943645;28;20209;-80
2023/02/27 11:22:35;;;;;;;13.43;2.80;;;9.50;65.80;;;;;;4928553;29;20209;-78
2023/02/27 11:25:24;;;;;;;9.70;2.87;;;9.50;65.20;;;;;;4947287;28;20220;-79
2023/02/27 11:28:18;;;;;;;4.57;2.63;;;9.40;64.10;;;;;;4953264;28;20615;-78
2023/02/27 11:31:07;;;;;;;9.33;2.60;;;9.40;64.50;;;;;;4930825;29;20250;-78
2023/02/27 11:33:41;;;;;;;4.63;2.83;;;9.50;65.20;;;;;;4925953;29;20206;-78
2023/02/27 11:36:12;;;;;;;6.27;2.80;;;9.50;65.30;;;;;;4943485;28;20213;-78
2023/02/27 11:38:55;;;;;;;7.53;2.57;;;9.60;64.30;;;;;;4927598;29;20228;-79
2023/02/27 11:41:32;;;;;;;4.63;2.77;;;9.60;64.30;;;;;;4947457;28;20247;-78
2023/02/27 11:44:04;;;;;;;5.80;2.93;;;9.70;64.80;;;;;;4947341;28;20220;-78
2023/02/27 11:46:31;;;;;;;9.70;2.60;;;9.80;65.50;;;;;;4942506;28;20206;-78
2023/02/27 11:49:32;;;;;;;6.73;2.97;;;9.80;65.50;;;;;;4929564;29;20204;-77
2023/02/27 11:52:21;;;;;;;7.13;3.00;;;9.90;65.30;;;;;;4949466;28;20219;-77
2023/02/27 11:55:02;;;;;;;4.47;3.03;;;9.90;64.50;;;;;;4924313;29;20224;-81
2023/02/27 11:57:37;;;;;;;4.93;2.70;;;10.00;64.80;;;;;;4943892;28;20273;-80
2023/02/27 12:00:15;;;;;;;10.70;3.60;;;10.00;64.20;;;;;;4932099;29;20196;-79
2023/02/27 12:03:02;;;;;;;7.27;2.77;;;10.00;65.30;;;;;;4933813;29;20217;-78
2023/02/27 12:05:40;;;;;;;5.90;2.97;;;10.00;63.80;;;;;;4932049;29;20208;-79
2023/02/27 12:08:36;;;;;;;9.70;2.50;;;10.00;63.50;;;;;;4932336;29;20209;-80
2023/02/27 12:11:13;;;;;;;5.93;2.70;;;10.00;64.50;;;;;;4936366;29;21474;-80
2023/02/27 12:13:48;;;;;;;4.07;2.97;;;10.00;62.90;;;;;;4946948;28;20233;-79
2023/02/27 12:16:36;;;;;;;3.43;2.27;;;10.00;63.40;;;;;;4946956;28;20555;-79
2023/02/27 12:19:37;;;;;;;6.00;3.27;;;10.00;63.60;;;;;;4945025;28;20221;-78
2023/02/27 12:22:31;;;;;;;8.97;3.23;;;9.90;62.90;;;;;;4945473;28;20656;-79
2023/02/27 12:25:11;;;;;;;5.23;3.43;;;9.90;61.60;;;;;;4926283;29;20206;-78
2023/02/27 12:27:58;;;;;;;7.63;3.03;;;9.90;64.30;;;;;;4933457;29;20216;-78
2023/02/27 12:30:30;;;;;;;4.60;3.23;;;9.90;62.70;;;;;;4933347;29;20196;-79
2023/02/27 12:33:01;;;;;;;5.57;2.50;;;9.90;62.90;;;;;;4926432;29;20285;-79
2023/02/27 12:35:34;;;;;;;11.43;3.33;;;9.90;62.70;;;;;;4942768;28;20269;-79
2023/02/27 12:38:04;;;;;;;5.87;3.37;;;9.90;63.40;;;;;;4949020;28;20244;-80
2023/02/27 12:40:45;;;;;;;5.53;3.60;;;9.90;62.80;;;;;;4944557;28;20234;-80
2023/02/27 12:43:25;;;;;;;7.80;3.20;;;9.90;62.70;;;;;;4923189;29;20292;-78
2023/02/27 12:46:07;;;;;;;4.03;2.67;;;10.00;62.80;;;;;;4944483;28;20561;-79
2023/02/27 12:49:15;;;;;;;11.80;3.50;;;10.00;63.10;;;;;;4946666;28;20214;-79
2023/02/27 12:51:55;;;;;;;5.63;3.90;;;10.10;62.80;;;;;;4888468;29;20228;-78
2023/02/27 12:54:28;;;;;;;8.13;2.53;;;10.10;62.00;;;;;;4907906;29;20220;-77
2023/02/27 12:57:29;;;;;;;10.17;3.20;;;10.10;61.80;;;;;;4927415;29;20232;-78
2023/02/27 13:00:13;;;;;;;6.03;3.70;;;10.10;62.30;;;;;;4937975;28;20698;-78
2023/02/27 13:02:41;;;;;;;4.80;3.13;;;10.10;61.20;;;;;;4934747;29;20236;-78
2023/02/27 13:05:26;;;;;;;5.20;2.80;;;10.10;62.80;;;;;;4926414;29;20252;-80
2023/02/27 13:08:12;;;;;;;5.17;3.03;;;10.10;62.60;;;;;;4927133;29;20202;-79
2023/02/27 13:11:17;;;;;;;7.10;3.80;;;10.10;62.90;;;;;;4930166;29;20672;-78
2023/02/27 13:13:50;;;;;;;4.53;2.70;;;10.20;63.30;;;;;;4945270;28;20589;-78
2023/02/27 13:16:34;;;;;;;10.23;3.70;;;10.20;62.90;;;;;;4946401;28;20196;-79
2023/02/27 13:19:16;;;;;;;7.37;3.50;;;10.20;63.70;;;;;;4941246;28;20217;-80
2023/02/27 13:21:56;;;;;;;7.97;3.70;;;10.30;63.60;;;;;;4942392;28;20209;-79
2023/02/27 13:24:25;;;;;;;6.47;3.17;;;10.30;62.50;;;;;;4940207;28;20649;-79
2023/02/27 13:27:18;;;;;;;6.50;2.90;;;10.30;62.00;;;;;;4940304;28;20213;-78
2023/02/27 13:30:02;;;;;;;6.97;3.63;;;10.40;62.10;;;;;;4940831;28;20207;-79
2023/02/27 13:32:43;;;;;;;5.57;3.10;;;10.40;62.50;;;;;;4943900;28;20608;-79
2023/02/27 13:35:39;;;;;;;8.07;3.43;;;10.40;59.80;;;;;;4923408;29;20213;-78
2023/02/27 13:38:31;;;;;;;6.13;3.50;;;10.40;61.90;;;;;;4946652;28;20724;-80
2023/02/27 13:41:37;;;;;;;9.73;3.50;;;10.40;61.60;;;;;;4927328;29;20210;-79